createdAt,value
2019-03-23T00:01:00.906Z,5.78
2019-03-23T00:02:05.453Z,6.00
2019-03-23T00:03:09.939Z,5.80
2019-03-23T00:04:14.412Z,5.75
2019-03-23T00:05:18.870Z,6.12
2019-03-23T00:06:30.739Z,5.40
2019-03-23T00:07:30.074Z,5.67
2019-03-23T00:08:34.563Z,5.60
2019-03-23T00:09:39.071Z,5.30
2019-03-23T00:10:43.544Z,6.00
2019-03-23T00:11:48.111Z,5.60
2019-03-23T00:12:53.049Z,5.83
2019-03-23T00:13:57.757Z,5.60
2019-03-23T00:15:02.300Z,5.50
2019-03-23T00:16:06.882Z,5.20
2019-03-23T00:17:11.345Z,5.42
2019-03-23T00:18:15.842Z,5.53
2019-03-23T00:19:20.588Z,5.55
2019-03-23T00:20:25.078Z,5.47
2019-03-23T00:21:29.538Z,5.00
2019-03-23T00:22:34.853Z,5.55
2019-03-23T00:23:39.358Z,5.70
2019-03-23T00:24:43.824Z,5.15
2019-03-23T00:25:48.372Z,5.72
2019-03-23T00:26:52.904Z,5.73
2019-03-23T00:27:57.369Z,5.47
2019-03-23T00:29:01.874Z,5.28
2019-03-23T00:30:10.005Z,5.73
2019-03-23T00:31:15.189Z,5.63
2019-03-23T00:32:19.670Z,5.00
2019-03-23T00:33:24.210Z,5.53
2019-03-23T00:34:28.690Z,5.33
2019-03-23T00:35:33.222Z,4.92
2019-03-23T00:36:41.720Z,5.43
2019-03-23T00:37:45.058Z,4.67
2019-03-23T00:38:49.541Z,4.58
2019-03-23T00:39:54.027Z,5.00
2019-03-23T00:40:59.226Z,4.90
2019-03-23T00:42:03.826Z,5.22
2019-03-23T00:43:08.504Z,5.35
2019-03-23T00:44:13.169Z,4.95
2019-03-23T00:45:17.684Z,5.53
2019-03-23T00:46:22.174Z,4.90
2019-03-23T00:47:26.647Z,5.37
2019-03-23T00:48:31.138Z,5.57
2019-03-23T00:49:35.604Z,5.30
2019-03-23T00:50:40.078Z,4.63
2019-03-23T00:51:44.546Z,5.53
2019-03-23T00:52:49.112Z,5.50
2019-03-23T00:53:54.078Z,4.80
2019-03-23T00:54:58.540Z,5.10
2019-03-23T00:56:03.180Z,4.80
2019-03-23T00:57:07.652Z,5.13
2019-03-23T00:58:12.117Z,5.40
2019-03-23T00:59:16.608Z,5.70
2019-03-23T01:00:21.640Z,4.92
2019-03-23T01:01:26.123Z,5.20
2019-03-23T01:02:30.919Z,5.08
2019-03-23T01:03:35.583Z,5.25
2019-03-23T01:04:40.072Z,5.33
2019-03-23T01:05:44.659Z,5.22
2019-03-23T01:06:52.379Z,4.90
2019-03-23T01:07:55.327Z,5.37
2019-03-23T01:08:59.792Z,4.90
2019-03-23T01:10:06.862Z,5.33
2019-03-23T01:11:11.326Z,5.50
2019-03-23T01:12:15.881Z,6.20
2019-03-23T01:13:20.358Z,5.33
2019-03-23T01:14:24.886Z,5.40
2019-03-23T01:15:29.445Z,4.92
2019-03-23T01:16:33.983Z,5.33
2019-03-23T01:17:38.734Z,5.13
2019-03-23T01:18:43.208Z,5.37
2019-03-23T01:19:47.689Z,6.07
2019-03-23T01:20:52.164Z,5.10
2019-03-23T01:21:56.788Z,5.60
2019-03-23T01:23:01.572Z,5.65
2019-03-23T01:24:06.030Z,5.10
2019-03-23T01:25:11.240Z,5.17
2019-03-23T01:26:15.793Z,5.45
2019-03-23T01:27:20.400Z,5.15
2019-03-23T01:28:24.867Z,4.67
2019-03-23T01:29:29.368Z,5.17
2019-03-23T01:30:33.918Z,5.40
2019-03-23T01:31:38.404Z,5.05
2019-03-23T01:32:42.937Z,5.03
2019-03-23T01:33:47.487Z,5.43
2019-03-23T01:34:51.975Z,5.07
2019-03-23T01:35:56.460Z,4.97
2019-03-23T01:37:03.008Z,5.60
2019-03-23T01:38:07.404Z,5.17
2019-03-23T01:39:11.992Z,4.90
2019-03-23T01:40:16.560Z,4.77
2019-03-23T01:41:21.693Z,5.42
2019-03-23T01:42:26.213Z,4.95
2019-03-23T01:43:30.991Z,4.50
2019-03-23T01:44:35.521Z,5.70
2019-03-23T01:45:40.046Z,4.85
2019-03-23T01:46:44.535Z,4.97
2019-03-23T01:47:49.094Z,5.10
2019-03-23T01:48:53.570Z,5.53
2019-03-23T01:49:58.113Z,5.00
2019-03-23T01:51:02.611Z,4.83
2019-03-23T01:52:07.133Z,5.42
2019-03-23T01:53:11.672Z,4.80
2019-03-23T01:54:16.144Z,5.50
2019-03-23T01:55:20.646Z,5.25
2019-03-23T01:56:25.194Z,5.47
2019-03-23T01:57:29.719Z,4.77
2019-03-23T01:58:34.183Z,4.93
2019-03-23T01:59:38.660Z,5.20
2019-03-23T02:00:43.226Z,4.67
2019-03-23T02:01:47.751Z,5.37
2019-03-23T02:02:52.216Z,5.20
2019-03-23T02:03:56.693Z,5.22
2019-03-23T02:05:01.300Z,5.42
2019-03-23T02:06:05.842Z,4.93
2019-03-23T02:07:14.103Z,5.40
2019-03-23T02:08:16.962Z,5.75
2019-03-23T02:09:21.464Z,4.83
2019-03-23T02:10:25.942Z,5.15
2019-03-23T02:11:30.492Z,5.35
2019-03-23T02:12:35.008Z,5.70
2019-03-23T02:13:39.493Z,5.58
2019-03-23T02:14:44.129Z,4.90
2019-03-23T02:15:48.605Z,5.58
2019-03-23T02:16:53.128Z,5.10
2019-03-23T02:17:57.601Z,5.15
2019-03-23T02:19:02.075Z,5.30
2019-03-23T02:20:14.278Z,5.45
2019-03-23T02:21:18.748Z,5.33
2019-03-23T02:22:23.248Z,5.47
2019-03-23T02:23:27.712Z,5.62
2019-03-23T02:24:32.184Z,5.10
2019-03-23T02:25:36.670Z,5.03
2019-03-23T02:26:41.136Z,5.10
2019-03-23T02:27:45.632Z,5.15
2019-03-23T02:28:50.104Z,5.53
2019-03-23T02:29:54.575Z,5.25
2019-03-23T02:30:59.395Z,5.60
2019-03-23T02:32:04.059Z,4.78
2019-03-23T02:33:08.804Z,5.20
2019-03-23T02:34:13.283Z,5.00
2019-03-23T02:35:17.762Z,4.92
2019-03-23T02:36:22.623Z,5.20
2019-03-23T02:37:28.170Z,5.17
2019-03-23T02:38:33.066Z,4.97
2019-03-23T02:39:37.556Z,5.33
2019-03-23T02:40:42.147Z,5.17
2019-03-23T02:41:46.696Z,5.33
2019-03-23T02:42:51.187Z,5.35
2019-03-23T02:43:55.739Z,5.60
2019-03-23T02:45:00.232Z,4.90
2019-03-23T02:46:04.759Z,5.10
2019-03-23T02:47:09.238Z,4.87
2019-03-23T02:48:13.718Z,5.10
2019-03-23T02:49:18.361Z,4.95
2019-03-23T02:50:22.890Z,4.83
2019-03-23T02:51:27.458Z,5.10
2019-03-23T02:52:32.110Z,5.50
2019-03-23T02:53:36.617Z,4.55
2019-03-23T02:54:41.124Z,4.67
2019-03-23T02:55:45.629Z,4.77
2019-03-23T02:56:50.317Z,4.80
2019-03-23T02:57:54.815Z,4.33
2019-03-23T02:58:59.289Z,4.75
2019-03-23T03:00:06.775Z,4.90
2019-03-23T03:01:11.269Z,4.45
2019-03-23T03:02:15.782Z,4.30
2019-03-23T03:03:20.302Z,4.87
2019-03-23T03:04:24.826Z,5.17
2019-03-23T03:05:29.326Z,4.83
2019-03-23T03:06:33.821Z,4.72
2019-03-23T03:07:42.531Z,5.30
2019-03-23T03:08:44.528Z,4.75
2019-03-23T03:09:48.987Z,4.87
2019-03-23T03:10:53.591Z,5.08
2019-03-23T03:11:58.064Z,4.40
2019-03-23T03:13:02.752Z,4.72
2019-03-23T03:14:07.234Z,4.62
2019-03-23T03:15:11.930Z,4.33
2019-03-23T03:16:16.433Z,4.73
2019-03-23T03:17:20.928Z,4.78
2019-03-23T03:18:25.387Z,4.78
2019-03-23T03:19:29.855Z,5.12
2019-03-23T03:20:34.400Z,5.10
2019-03-23T03:21:38.880Z,5.12
2019-03-23T03:22:43.347Z,4.63
2019-03-23T03:23:47.812Z,4.90
2019-03-23T03:24:52.284Z,5.23
2019-03-23T03:25:56.988Z,4.53
2019-03-23T03:27:01.460Z,4.37
2019-03-23T03:28:06.117Z,4.75
2019-03-23T03:29:10.588Z,4.70
2019-03-23T03:30:15.277Z,5.10
2019-03-23T03:31:19.739Z,4.78
2019-03-23T03:32:24.271Z,5.05
2019-03-23T03:33:28.806Z,4.87
2019-03-23T03:34:33.313Z,4.80
2019-03-23T03:35:37.799Z,4.60
2019-03-23T03:36:42.337Z,4.67
2019-03-23T03:37:56.618Z,4.50
2019-03-23T03:38:53.261Z,4.35
2019-03-23T03:39:57.718Z,4.20
2019-03-23T03:41:02.256Z,4.60
2019-03-23T03:42:06.732Z,4.50
2019-03-23T03:43:11.207Z,4.33
2019-03-23T03:44:15.688Z,3.70
2019-03-23T03:45:29.400Z,4.20
2019-03-23T03:46:33.875Z,4.50
2019-03-23T03:47:41.213Z,4.60
2019-03-23T03:48:44.499Z,4.85
2019-03-23T03:49:49.004Z,4.80
2019-03-23T03:50:53.455Z,4.75
2019-03-23T03:51:57.923Z,4.55
2019-03-23T03:53:02.395Z,4.67
2019-03-23T03:54:06.925Z,4.28
2019-03-23T03:55:11.403Z,4.23
2019-03-23T03:56:15.940Z,4.30
2019-03-23T03:57:20.421Z,4.47
2019-03-23T03:58:24.909Z,4.60
2019-03-23T03:59:29.493Z,4.75
2019-03-23T04:00:34.150Z,4.30
2019-03-23T04:01:38.710Z,4.73
2019-03-23T04:02:43.255Z,5.10
2019-03-23T04:03:47.794Z,4.73
2019-03-23T04:04:52.256Z,4.70
2019-03-23T04:05:56.799Z,5.03
2019-03-23T04:07:01.602Z,4.33
2019-03-23T04:08:11.453Z,5.20
2019-03-23T04:09:12.459Z,5.05
2019-03-23T04:10:16.968Z,4.45
2019-03-23T04:11:21.447Z,4.90
2019-03-23T04:12:26.034Z,4.55
2019-03-23T04:13:30.568Z,4.58
2019-03-23T04:14:35.638Z,4.33
2019-03-23T04:15:40.175Z,4.47
2019-03-23T04:16:44.673Z,4.73
2019-03-23T04:17:49.197Z,4.90
2019-03-23T04:18:53.662Z,3.92
2019-03-23T04:19:58.162Z,4.10
2019-03-23T04:21:02.700Z,4.63
2019-03-23T04:22:07.174Z,4.27
2019-03-23T04:23:11.637Z,4.30
2019-03-23T04:24:16.198Z,4.10
2019-03-23T04:25:20.660Z,4.22
2019-03-23T04:26:25.125Z,4.40
2019-03-23T04:27:29.583Z,4.53
2019-03-23T04:28:34.064Z,4.05
2019-03-23T04:29:38.898Z,4.47
2019-03-23T04:30:43.365Z,4.60
2019-03-23T04:31:47.841Z,3.98
2019-03-23T04:32:52.964Z,4.20
2019-03-23T04:33:57.626Z,4.03
2019-03-23T04:35:02.303Z,3.95
2019-03-23T04:36:06.858Z,4.42
2019-03-23T04:37:11.470Z,4.25
2019-03-23T04:38:22.579Z,3.85
2019-03-23T04:39:22.177Z,4.10
2019-03-23T04:40:26.670Z,4.20
2019-03-23T04:41:31.198Z,4.03
2019-03-23T04:42:35.748Z,3.92
2019-03-23T04:43:40.243Z,4.67
2019-03-23T04:44:44.700Z,4.37
2019-03-23T04:45:49.176Z,4.93
2019-03-23T04:46:53.678Z,4.50
2019-03-23T04:47:58.281Z,4.28
2019-03-23T04:49:02.761Z,4.40
2019-03-23T04:50:13.167Z,4.10
2019-03-23T04:51:17.647Z,4.60
2019-03-23T04:52:22.102Z,4.47
2019-03-23T04:53:26.688Z,4.20
2019-03-23T04:54:31.162Z,4.05
2019-03-23T04:55:35.648Z,4.65
2019-03-23T04:56:40.105Z,4.25
2019-03-23T04:57:44.583Z,4.33
2019-03-23T04:58:49.044Z,4.60
2019-03-23T04:59:53.623Z,4.35
2019-03-23T05:00:58.078Z,4.37
2019-03-23T05:02:02.812Z,4.27
2019-03-23T05:03:07.306Z,4.03
2019-03-23T05:04:11.784Z,4.77
2019-03-23T05:05:16.341Z,3.90
2019-03-23T05:06:20.868Z,3.27
2019-03-23T05:07:25.405Z,4.10
2019-03-23T05:08:33.657Z,4.10
2019-03-23T05:09:36.147Z,3.87
2019-03-23T05:10:40.630Z,3.90
2019-03-23T05:11:45.263Z,4.17
2019-03-23T05:12:49.728Z,4.33
2019-03-23T05:13:54.210Z,4.00
2019-03-23T05:14:58.667Z,4.28
2019-03-23T05:16:03.240Z,3.47
2019-03-23T05:17:07.881Z,3.98
2019-03-23T05:18:12.369Z,3.95
2019-03-23T05:19:16.841Z,3.87
2019-03-23T05:20:26.934Z,4.12
2019-03-23T05:21:31.433Z,3.77
2019-03-23T05:22:35.896Z,3.77
2019-03-23T05:23:40.378Z,4.17
2019-03-23T05:24:44.846Z,4.10
2019-03-23T05:25:49.308Z,3.47
2019-03-23T05:26:53.878Z,4.20
2019-03-23T05:27:58.779Z,4.17
2019-03-23T05:29:03.251Z,3.70
2019-03-23T05:30:09.642Z,4.07
2019-03-23T05:31:14.120Z,4.10
2019-03-23T05:32:18.663Z,4.20
2019-03-23T05:33:23.163Z,4.40
2019-03-23T05:34:27.696Z,4.10
2019-03-23T05:35:32.197Z,4.20
2019-03-23T05:36:37.118Z,4.08
2019-03-23T05:37:41.604Z,4.00
2019-03-23T05:38:46.068Z,4.53
2019-03-23T05:39:50.523Z,4.00
2019-03-23T05:40:54.982Z,4.30
2019-03-23T05:41:59.741Z,4.22
2019-03-23T05:43:04.341Z,4.62
2019-03-23T05:44:08.795Z,4.37
2019-03-23T05:45:13.403Z,4.12
2019-03-23T05:46:17.868Z,4.28
2019-03-23T05:47:22.330Z,4.20
2019-03-23T05:48:26.842Z,4.37
2019-03-23T05:49:31.303Z,4.50
2019-03-23T05:50:35.771Z,4.60
2019-03-23T05:51:40.245Z,4.83
2019-03-23T05:52:44.730Z,4.97
2019-03-23T05:53:49.221Z,4.33
2019-03-23T05:54:53.707Z,4.40
2019-03-23T05:55:58.248Z,4.73
2019-03-23T05:57:02.714Z,4.80
2019-03-23T05:58:07.171Z,5.13
2019-03-23T05:59:11.656Z,4.53
2019-03-23T06:00:17.821Z,4.50
2019-03-23T06:01:22.967Z,4.55
2019-03-23T06:02:27.469Z,4.37
2019-03-23T06:03:32.064Z,4.33
2019-03-23T06:04:36.552Z,4.60
2019-03-23T06:05:41.151Z,4.33
2019-03-23T06:06:45.816Z,4.62
2019-03-23T06:07:50.438Z,4.37
2019-03-23T06:08:55.566Z,4.60
2019-03-23T06:10:00.340Z,3.90
2019-03-23T06:11:05.100Z,4.20
2019-03-23T06:12:09.579Z,4.50
2019-03-23T06:13:14.134Z,4.35
2019-03-23T06:14:18.613Z,4.27
2019-03-23T06:15:23.181Z,3.92
2019-03-23T06:16:27.655Z,3.73
2019-03-23T06:17:32.138Z,4.27
2019-03-23T06:18:36.704Z,4.72
2019-03-23T06:19:41.248Z,4.45
2019-03-23T06:20:45.722Z,4.00
2019-03-23T06:21:50.217Z,4.47
2019-03-23T06:22:54.710Z,4.37
2019-03-23T06:23:59.234Z,4.42
2019-03-23T06:25:05.637Z,3.92
2019-03-23T06:26:10.138Z,4.05
2019-03-23T06:27:14.743Z,4.08
2019-03-23T06:28:19.304Z,4.08
2019-03-23T06:29:23.758Z,4.40
2019-03-23T06:30:28.234Z,4.50
2019-03-23T06:31:32.727Z,4.60
2019-03-23T06:32:37.191Z,4.80
2019-03-23T06:33:41.671Z,4.85
2019-03-23T06:34:46.136Z,4.67
2019-03-23T06:35:50.609Z,4.77
2019-03-23T06:36:55.270Z,4.73
2019-03-23T06:37:59.744Z,4.63
2019-03-23T06:39:06.211Z,4.30
2019-03-23T06:40:12.515Z,4.72
2019-03-23T06:41:16.988Z,4.40
2019-03-23T06:42:21.468Z,4.30
2019-03-23T06:43:26.011Z,4.30
2019-03-23T06:44:30.534Z,4.60
2019-03-23T06:45:34.994Z,4.83
2019-03-23T06:46:39.458Z,4.25
2019-03-23T06:47:44.084Z,4.47
2019-03-23T06:48:48.552Z,4.20
2019-03-23T06:49:53.407Z,4.43
2019-03-23T06:50:57.884Z,4.28
2019-03-23T06:52:02.374Z,4.70
2019-03-23T06:53:07.558Z,4.23
2019-03-23T06:54:12.044Z,4.27
2019-03-23T06:55:16.556Z,4.00
2019-03-23T06:56:21.095Z,4.40
2019-03-23T06:57:25.583Z,4.83
2019-03-23T06:58:30.125Z,4.47
2019-03-23T06:59:34.603Z,4.67
2019-03-23T07:00:39.147Z,4.60
2019-03-23T07:01:43.647Z,4.30
2019-03-23T07:02:50.837Z,4.00
2019-03-23T07:03:55.334Z,4.33
2019-03-23T07:04:59.902Z,4.45
2019-03-23T07:06:04.495Z,4.15
2019-03-23T07:07:09.014Z,4.12
2019-03-23T07:08:13.474Z,4.45
2019-03-23T07:09:18.009Z,4.58
2019-03-23T07:10:22.597Z,4.03
2019-03-23T07:11:27.067Z,4.10
2019-03-23T07:12:31.530Z,4.67
2019-03-23T07:13:36.065Z,4.53
2019-03-23T07:14:40.576Z,4.03
2019-03-23T07:15:45.617Z,4.12
2019-03-23T07:16:50.080Z,5.07
2019-03-23T07:17:54.563Z,4.62
2019-03-23T07:18:59.036Z,4.30
2019-03-23T07:20:05.515Z,4.62
2019-03-23T07:21:09.986Z,4.77
2019-03-23T07:22:14.474Z,4.73
2019-03-23T07:23:18.945Z,4.97
2019-03-23T07:24:23.417Z,4.67
2019-03-23T07:25:27.975Z,5.03
2019-03-23T07:26:32.435Z,5.30
2019-03-23T07:27:36.907Z,4.22
2019-03-23T07:28:41.383Z,4.70
2019-03-23T07:29:45.855Z,4.80
2019-03-23T07:30:50.421Z,4.17
2019-03-23T07:32:05.274Z,4.67
2019-03-23T07:33:01.136Z,4.65
2019-03-23T07:34:06.610Z,4.57
2019-03-23T07:35:11.343Z,5.13
2019-03-23T07:36:16.033Z,4.42
2019-03-23T07:37:20.532Z,4.70
2019-03-23T07:38:25.060Z,4.70
2019-03-23T07:39:30.536Z,5.10
2019-03-23T07:40:35.302Z,5.22
2019-03-23T07:41:39.821Z,5.30
2019-03-23T07:42:44.312Z,5.20
2019-03-23T07:43:48.797Z,5.00
2019-03-23T07:44:53.266Z,4.73
2019-03-23T07:45:57.749Z,5.08
2019-03-23T07:47:02.398Z,5.97
2019-03-23T07:48:07.166Z,5.42
2019-03-23T07:49:11.631Z,5.17
2019-03-23T07:50:16.181Z,5.28
2019-03-23T07:51:20.638Z,5.10
2019-03-23T07:52:25.123Z,5.72
2019-03-23T07:53:29.645Z,5.57
2019-03-23T07:54:34.133Z,5.40
2019-03-23T07:55:38.624Z,5.08
2019-03-23T07:56:43.101Z,5.40
2019-03-23T07:57:48.343Z,5.65
2019-03-23T07:58:53.103Z,5.78
2019-03-23T07:59:57.740Z,5.63
2019-03-23T08:01:02.252Z,5.90
2019-03-23T08:02:06.780Z,5.97
2019-03-23T08:03:11.569Z,4.93
2019-03-23T08:04:16.137Z,6.37
2019-03-23T08:05:20.677Z,5.80
2019-03-23T08:06:25.157Z,5.73
2019-03-23T08:07:29.619Z,6.20
2019-03-23T08:08:34.265Z,6.10
2019-03-23T08:09:38.769Z,5.85
2019-03-23T08:10:43.254Z,5.90
2019-03-23T08:11:47.714Z,6.12
2019-03-23T08:12:52.421Z,5.70
2019-03-23T08:13:56.901Z,5.58
2019-03-23T08:15:01.381Z,5.58
2019-03-23T08:16:05.856Z,5.13
2019-03-23T08:17:10.510Z,5.50
2019-03-23T08:18:14.981Z,6.10
2019-03-23T08:19:19.460Z,5.50
2019-03-23T08:20:24.696Z,6.20
2019-03-23T08:21:29.252Z,6.57
2019-03-23T08:22:33.738Z,7.15
2019-03-23T08:23:38.206Z,6.40
2019-03-23T08:24:42.689Z,7.42
2019-03-23T08:25:47.181Z,6.25
2019-03-23T08:26:51.662Z,6.77
2019-03-23T08:27:56.331Z,6.90
2019-03-23T08:29:03.178Z,6.90
2019-03-23T08:30:07.108Z,6.78
2019-03-23T08:31:11.596Z,6.87
2019-03-23T08:32:16.046Z,6.72
2019-03-23T08:33:20.545Z,6.63
2019-03-23T08:34:25.014Z,7.58
2019-03-23T08:35:29.485Z,7.45
2019-03-23T08:36:33.965Z,7.20
2019-03-23T08:37:38.437Z,7.62
2019-03-23T08:38:42.934Z,7.58
2019-03-23T08:39:48.722Z,7.00
2019-03-23T08:40:53.350Z,7.43
2019-03-23T08:41:57.824Z,7.43
2019-03-23T08:43:02.488Z,7.50
2019-03-23T08:44:06.984Z,7.83
2019-03-23T08:45:11.695Z,8.77
2019-03-23T08:46:16.161Z,8.28
2019-03-23T08:47:20.758Z,8.00
2019-03-23T08:48:25.811Z,8.10
2019-03-23T08:49:30.280Z,8.30
2019-03-23T08:50:34.781Z,7.80
2019-03-23T08:51:39.414Z,8.57
2019-03-23T08:52:43.941Z,8.18
2019-03-23T08:53:48.528Z,9.28
2019-03-23T08:54:53.216Z,8.90
2019-03-23T08:55:57.777Z,8.98
2019-03-23T08:57:02.550Z,9.80
2019-03-23T08:58:07.022Z,9.70
2019-03-23T08:59:11.520Z,9.40
2019-03-23T09:00:16.080Z,9.70
2019-03-23T09:01:20.562Z,8.50
2019-03-23T09:02:25.036Z,9.07
2019-03-23T09:03:29.528Z,9.43
2019-03-23T09:04:34.027Z,9.05
2019-03-23T09:05:38.583Z,9.18
2019-03-23T09:06:43.223Z,9.08
2019-03-23T09:07:47.804Z,10.00
2019-03-23T09:08:52.304Z,10.30
2019-03-23T09:09:59.347Z,9.90
2019-03-23T09:11:03.051Z,10.47
2019-03-23T09:12:07.607Z,10.17
2019-03-23T09:13:12.103Z,10.63
2019-03-23T09:14:16.744Z,10.70
2019-03-23T09:15:21.292Z,11.00
2019-03-23T09:16:25.786Z,10.70
2019-03-23T09:17:30.268Z,9.83
2019-03-23T09:18:34.740Z,10.47
2019-03-23T09:19:39.321Z,9.83
2019-03-23T09:20:43.799Z,9.83
2019-03-23T09:21:48.278Z,9.47
2019-03-23T09:22:52.743Z,10.37
2019-03-23T09:23:57.227Z,10.70
2019-03-23T09:25:01.737Z,10.90
2019-03-23T09:26:06.290Z,10.20
2019-03-23T09:27:12.563Z,11.13
2019-03-23T09:28:16.956Z,11.57
2019-03-23T09:29:21.466Z,10.97
2019-03-23T09:30:25.942Z,10.20
2019-03-23T09:31:30.443Z,10.90
2019-03-23T09:32:35.009Z,11.20
2019-03-23T09:33:39.596Z,10.27
2019-03-23T09:34:44.113Z,10.87
2019-03-23T09:35:48.597Z,10.87
2019-03-23T09:36:53.079Z,10.40
2019-03-23T09:37:57.590Z,10.97
2019-03-23T09:39:02.085Z,11.87
2019-03-23T09:40:11.139Z,11.97
2019-03-23T09:41:13.854Z,11.17
2019-03-23T09:42:18.333Z,11.83
2019-03-23T09:43:22.855Z,10.73
2019-03-23T09:44:27.338Z,10.00
2019-03-23T09:45:31.848Z,10.10
2019-03-23T09:46:36.341Z,11.40
2019-03-23T09:47:41.148Z,11.10
2019-03-23T09:48:45.523Z,10.63
2019-03-23T09:49:50.002Z,11.37
2019-03-23T09:50:54.488Z,11.30
2019-03-23T09:51:58.994Z,12.13
2019-03-23T09:53:03.525Z,11.17
2019-03-23T09:54:08.009Z,11.43
2019-03-23T09:55:12.491Z,11.73
2019-03-23T09:56:16.964Z,11.70
2019-03-23T09:57:21.531Z,11.17
2019-03-23T09:58:26.040Z,10.90
2019-03-23T09:59:30.528Z,11.40
2019-03-23T10:00:35.042Z,12.07
2019-03-23T10:01:39.869Z,11.53
2019-03-23T10:02:44.353Z,11.10
2019-03-23T10:03:48.843Z,11.07
2019-03-23T10:04:53.591Z,11.87
2019-03-23T10:05:58.090Z,11.93
2019-03-23T10:07:02.732Z,11.87
2019-03-23T10:08:07.216Z,11.87
2019-03-23T10:09:11.867Z,12.33
2019-03-23T10:10:21.783Z,12.40
2019-03-23T10:11:22.940Z,12.13
2019-03-23T10:12:27.454Z,12.13
2019-03-23T10:13:31.938Z,11.33
2019-03-23T10:14:36.414Z,12.57
2019-03-23T10:15:40.926Z,12.10
2019-03-23T10:16:45.421Z,12.93
2019-03-23T10:17:49.931Z,12.33
2019-03-23T10:18:54.429Z,11.60
2019-03-23T10:19:58.908Z,11.67
2019-03-23T10:21:03.405Z,11.73
2019-03-23T10:22:07.894Z,11.93
2019-03-23T10:23:12.394Z,11.73
2019-03-23T10:24:16.886Z,11.27
2019-03-23T10:25:21.378Z,11.00
2019-03-23T10:26:25.855Z,11.97
2019-03-23T10:27:30.322Z,12.00
2019-03-23T10:28:34.822Z,12.23
2019-03-23T10:29:39.331Z,11.77
2019-03-23T10:30:43.806Z,12.90
2019-03-23T10:31:48.281Z,13.23
2019-03-23T10:32:52.759Z,12.07
2019-03-23T10:33:57.243Z,12.23
2019-03-23T10:35:01.728Z,11.57
2019-03-23T10:36:06.212Z,12.27
2019-03-23T10:37:10.734Z,11.17
2019-03-23T10:38:15.227Z,10.97
2019-03-23T10:39:19.703Z,11.77
2019-03-23T10:40:31.907Z,12.20
2019-03-23T10:41:30.381Z,12.00
2019-03-23T10:42:34.873Z,10.90
2019-03-23T10:43:39.356Z,11.67
2019-03-23T10:44:43.845Z,11.37
2019-03-23T10:45:48.333Z,10.90
2019-03-23T10:46:52.844Z,11.60
2019-03-23T10:49:01.912Z,11.87
2019-03-23T10:50:07.059Z,11.63
2019-03-23T10:51:11.545Z,11.53
2019-03-23T10:52:15.952Z,10.80
2019-03-23T10:53:23.179Z,11.47
2019-03-23T10:54:26.560Z,11.20
2019-03-23T10:55:31.060Z,11.63
2019-03-23T10:56:35.619Z,12.37
2019-03-23T10:57:40.112Z,11.87
2019-03-23T10:58:44.616Z,11.80
2019-03-23T10:59:49.113Z,12.73
2019-03-23T11:00:53.618Z,12.37
2019-03-23T11:01:58.154Z,12.23
2019-03-23T11:03:02.727Z,12.13
2019-03-23T11:04:07.237Z,11.03
2019-03-23T11:05:11.744Z,11.57
2019-03-23T11:06:16.289Z,11.13
2019-03-23T11:07:20.751Z,12.57
2019-03-23T11:08:24.917Z,12.23
2019-03-23T11:09:29.304Z,12.33
2019-03-23T11:10:41.533Z,12.13
2019-03-23T11:11:40.024Z,11.73
2019-03-23T11:12:44.527Z,11.97
2019-03-23T11:13:49.000Z,12.67
2019-03-23T11:14:53.506Z,13.80
2019-03-23T11:15:58.035Z,11.73
2019-03-23T11:17:02.530Z,12.43
2019-03-23T11:18:07.480Z,12.33
2019-03-23T11:19:13.569Z,12.13
2019-03-23T11:20:18.363Z,12.10
2019-03-23T11:21:22.869Z,12.53
2019-03-23T11:22:27.358Z,11.60
2019-03-23T11:23:31.519Z,12.97
2019-03-23T11:24:35.907Z,12.67
2019-03-23T11:25:40.064Z,11.43
2019-03-23T11:26:44.466Z,11.63
2019-03-23T11:27:49.025Z,11.47
2019-03-23T11:28:53.516Z,11.27
2019-03-23T11:29:58.024Z,12.23
2019-03-23T11:31:02.526Z,10.57
2019-03-23T11:32:07.008Z,11.30
2019-03-23T11:33:11.592Z,11.73
2019-03-23T11:34:17.988Z,11.83
2019-03-23T11:35:22.538Z,11.70
2019-03-23T11:36:26.724Z,12.50
2019-03-23T11:37:30.865Z,17.87
2019-03-23T11:38:35.062Z,15.53
2019-03-23T11:39:39.108Z,14.03
2019-03-23T11:40:52.196Z,12.93
2019-03-23T11:41:48.876Z,12.40
2019-03-23T11:42:53.227Z,11.50
2019-03-23T11:43:57.707Z,12.00
2019-03-23T11:45:02.853Z,12.63
2019-03-23T11:46:07.348Z,12.10
2019-03-23T11:47:11.853Z,10.73
2019-03-23T11:48:16.405Z,11.57
2019-03-23T11:49:20.870Z,12.17
2019-03-23T11:50:25.358Z,13.00
2019-03-23T11:51:29.841Z,13.87
2019-03-23T11:52:34.372Z,12.40
2019-03-23T11:53:38.865Z,12.80
2019-03-23T11:54:43.358Z,12.80
2019-03-23T11:55:47.825Z,12.50
2019-03-23T11:56:52.336Z,13.77
2019-03-23T11:57:56.897Z,13.73
2019-03-23T11:59:01.382Z,14.40
2019-03-23T12:00:11.884Z,13.27
2019-03-23T12:01:16.360Z,14.10
2019-03-23T12:02:20.854Z,14.50
2019-03-23T12:03:25.366Z,13.23
2019-03-23T12:04:29.846Z,14.23
2019-03-23T12:05:34.334Z,13.53
2019-03-23T12:06:38.877Z,13.57
2019-03-23T12:07:43.366Z,13.60
2019-03-23T12:08:47.866Z,12.93
2019-03-23T12:09:52.356Z,13.60
2019-03-23T12:11:02.804Z,13.07
2019-03-23T12:12:03.002Z,13.97
2019-03-23T12:13:07.473Z,13.77
2019-03-23T12:14:11.972Z,13.37
2019-03-23T12:15:16.519Z,13.10
2019-03-23T12:16:21.006Z,13.67
2019-03-23T12:17:25.491Z,13.47
2019-03-23T12:18:30.034Z,13.17
2019-03-23T12:19:34.536Z,12.63
2019-03-23T12:20:39.276Z,13.53
2019-03-23T12:21:43.812Z,12.53
2019-03-23T12:22:48.295Z,12.50
2019-03-23T12:23:52.859Z,11.70
2019-03-23T12:24:57.387Z,12.27
2019-03-23T12:26:01.898Z,12.87
2019-03-23T12:27:06.389Z,13.13
2019-03-23T12:28:10.872Z,12.87
2019-03-23T12:29:15.367Z,13.10
2019-03-23T12:30:20.198Z,12.87
2019-03-23T12:31:24.671Z,13.07
2019-03-23T12:32:29.166Z,15.70
2019-03-23T12:33:33.668Z,14.70
2019-03-23T12:34:38.147Z,14.87
2019-03-23T12:35:42.655Z,14.63
2019-03-23T12:36:47.213Z,15.30
2019-03-23T12:37:51.690Z,14.93
2019-03-23T12:38:56.187Z,13.23
2019-03-23T12:40:00.679Z,14.17
2019-03-23T12:41:14.276Z,13.87
2019-03-23T12:42:11.333Z,13.77
2019-03-23T12:43:15.826Z,13.57
2019-03-23T12:44:20.428Z,14.50
2019-03-23T12:45:24.927Z,13.17
2019-03-23T12:46:29.417Z,13.83
2019-03-23T12:47:33.897Z,13.43
2019-03-23T12:48:38.365Z,13.77
2019-03-23T12:49:42.851Z,13.33
2019-03-23T12:50:47.335Z,14.23
2019-03-23T12:51:51.839Z,13.37
2019-03-23T12:52:57.482Z,13.80
2019-03-23T12:54:02.078Z,13.90
2019-03-23T12:55:09.491Z,14.47
2019-03-23T12:56:13.967Z,13.20
2019-03-23T12:57:18.711Z,13.60
2019-03-23T12:58:23.207Z,14.33
2019-03-23T12:59:27.681Z,14.33
2019-03-23T13:00:32.232Z,14.53
2019-03-23T13:01:36.728Z,13.90
2019-03-23T13:02:41.240Z,12.63
2019-03-23T13:03:45.734Z,13.33
2019-03-23T13:04:50.219Z,13.60
2019-03-23T13:05:54.701Z,13.40
2019-03-23T13:06:59.197Z,12.60
2019-03-23T13:08:03.808Z,13.33
2019-03-23T13:09:08.292Z,12.27
2019-03-23T13:10:13.708Z,11.83
2019-03-23T13:11:23.308Z,12.30
2019-03-23T13:12:24.372Z,12.33
2019-03-23T13:13:28.873Z,14.43
2019-03-23T13:14:33.388Z,13.90
2019-03-23T13:15:37.863Z,13.77
2019-03-23T13:16:42.338Z,13.10
2019-03-23T13:17:46.841Z,12.67
2019-03-23T13:18:51.344Z,12.93
2019-03-23T13:19:55.825Z,13.40
2019-03-23T13:21:00.329Z,13.47
2019-03-23T13:22:04.888Z,14.30
2019-03-23T13:23:09.373Z,14.07
2019-03-23T13:24:13.871Z,12.47
2019-03-23T13:25:18.529Z,12.53
2019-03-23T13:26:23.007Z,12.80
2019-03-23T13:27:27.497Z,12.97
2019-03-23T13:28:32.038Z,12.53
2019-03-23T13:29:36.559Z,12.53
2019-03-23T13:30:41.202Z,13.77
2019-03-23T13:31:45.754Z,13.20
2019-03-23T13:32:50.232Z,13.57
2019-03-23T13:33:54.725Z,13.23
2019-03-23T13:34:59.199Z,12.60
2019-03-23T13:36:03.771Z,12.97
2019-03-23T13:37:08.253Z,13.10
2019-03-23T13:38:12.718Z,12.30
2019-03-23T13:39:17.218Z,12.87
2019-03-23T13:40:21.718Z,12.67
2019-03-23T13:41:26.188Z,13.03
2019-03-23T13:42:30.697Z,12.60
2019-03-23T13:43:35.416Z,12.97
2019-03-23T13:44:39.926Z,13.13
2019-03-23T13:45:44.397Z,13.17
2019-03-23T13:46:48.888Z,13.47
2019-03-23T13:47:54.947Z,14.03
2019-03-23T13:48:59.464Z,13.60
2019-03-23T13:50:05.600Z,13.00
2019-03-23T13:51:10.081Z,13.33
2019-03-23T13:52:14.602Z,13.73
2019-03-23T13:53:19.070Z,13.80
2019-03-23T13:54:23.542Z,15.53
2019-03-23T13:55:30.766Z,13.97
2019-03-23T13:56:35.241Z,13.80
2019-03-23T13:57:39.744Z,13.63
2019-03-23T13:58:44.225Z,14.73
2019-03-23T13:59:48.741Z,14.20
2019-03-23T14:00:53.214Z,15.90
2019-03-23T14:01:57.696Z,15.63
2019-03-23T14:03:02.210Z,15.20
2019-03-23T14:04:06.693Z,14.93
2019-03-23T14:05:16.133Z,13.70
2019-03-23T14:06:17.350Z,13.63
2019-03-23T14:07:21.823Z,16.27
2019-03-23T14:08:26.373Z,15.37
2019-03-23T14:09:31.011Z,16.43
2019-03-23T14:10:35.784Z,16.10
2019-03-23T14:11:40.336Z,16.13
2019-03-23T14:12:44.858Z,16.00